Tropical Cyclones
[Index]
Main Index Home Page Stock Weather Photos Extreme Storms Discussion Storm News and Storm Chasing Reports Tropical Cyclones / Hurricanes / Typhoons Weather Data and Links Wild Fires / Bushfires Weather Observation Techniques Weather Picture Catalogue Tornado Pictures and Reports Stock Video Footage and DVDs for sale
Season 1960-1961 Tropical Cyclone 196125 Track Map
Season 1960-1961 Summaries: [BoM-AU] [JTWC-AU] [JTWC-SIO] [JTWC-SPAC] [JTWC-SH]
<<- Previous TC | JTWC 1960-1961 Season | Next TC ->>

click for intensity scale information  Lat/long Grid: Show Hide

 Date Labels: Show Hide

Joint Typhoon Warning Centre Cyclone Data

Name: 196125
Number: 419 / 6125

11 Mar 1961 12:00 UTC to 19 Mar 1961 00:00 UTC

    date/time    lat    long     hPa   cat  kts
1961-03-11 12   13.7   155.1W                             
1961-03-11 18   13.7   154.9W                             
1961-03-12 00   14.0   154.4W                             
1961-03-12 06   14.5   153.3W                             
1961-03-12 12   15.2   152.3W                             
1961-03-12 18   16.2   151.8W                             
1961-03-13 00   17.3   151.6W                             
1961-03-13 06   18.2   151.5W                             
1961-03-13 12   19.0   151.6W                             
1961-03-13 18   19.7   151.9W                             
1961-03-14 00   20.2   152.5W                             
1961-03-14 06   20.3   153.8W                             
1961-03-14 12   20.0   155.0W                             
1961-03-14 18   19.0   155.1W                             
1961-03-15 00   18.1   154.9W                             
1961-03-15 06   17.8   154.5W                             
1961-03-15 12   17.6   154.0W                             
1961-03-15 18   17.5   153.4W                             
1961-03-16 00   17.5   152.8W                             
1961-03-16 06   17.9   152.2W                             
1961-03-16 12   18.6   151.5W                             
1961-03-16 18   19.4   151.1W                             
1961-03-17 00   20.2   151.3W                             
1961-03-17 06   21.0   152.1W                             
1961-03-17 12   21.7   152.9W                             
1961-03-17 18   22.4   153.8W                             
1961-03-18 00   23.0   154.6W                             
1961-03-18 06   23.5   155.3W                             
1961-03-18 12   24.0   155.8W                             
1961-03-18 18   24.6   156.1W                             
1961-03-19 00   25.3   156.3W                             
Winds are 1-min average.

Tropical cyclone tracks developed by Michael Bath using data from the Joint Typhoon Warning Centre Best Tracks and Google Maps.


[Australian Severe Weather index] [Copyright Notice] [Email Contacts] [Search This Site] [Privacy Policy]
Document: tropical_cyclone_196125.htm Updated: 18 September 2016